createdAt,value
2022-09-30T00:01:15.837Z,44.07
2022-09-30T00:03:43.676Z,43.40
2022-09-30T00:06:11.265Z,40.53
2022-09-30T00:08:38.783Z,39.90
2022-09-30T00:11:16.366Z,41.03
2022-09-30T00:13:45.087Z,37.23
2022-09-30T00:16:14.009Z,40.27
2022-09-30T00:18:42.509Z,35.77
2022-09-30T00:21:11.232Z,37.10
2022-09-30T00:23:39.194Z,42.43
2022-09-30T00:26:10.260Z,37.33
2022-09-30T00:28:37.177Z,42.93
2022-09-30T00:31:07.954Z,40.53
2022-09-30T00:33:36.487Z,38.67
2022-09-30T00:36:05.074Z,40.10
2022-09-30T00:38:32.520Z,38.30
2022-09-30T00:41:03.327Z,38.67
2022-09-30T00:43:46.697Z,34.20
2022-09-30T00:46:29.008Z,32.60
2022-09-30T00:48:58.464Z,37.50
2022-09-30T00:51:41.088Z,36.60
2022-09-30T00:54:13.650Z,37.13
2022-09-30T00:56:46.746Z,34.17
2022-09-30T00:59:38.213Z,40.73
2022-09-30T01:02:06.339Z,54.87
2022-09-30T01:04:35.458Z,42.30
2022-09-30T01:07:05.380Z,36.30
2022-09-30T01:09:35.700Z,37.10
2022-09-30T01:12:09.366Z,43.50
2022-09-30T01:14:37.700Z,36.47
2022-09-30T01:17:07.794Z,37.03
2022-09-30T01:20:04.649Z,33.73
2022-09-30T01:23:04.592Z,36.20
2022-09-30T01:25:43.474Z,35.70
2022-09-30T01:28:53.679Z,32.73
2022-09-30T01:31:49.683Z,32.53
2022-09-30T01:34:36.354Z,35.07
2022-09-30T01:37:47.748Z,33.87
2022-09-30T01:40:23.972Z,33.63
2022-09-30T01:43:00.944Z,38.63
2022-09-30T01:45:36.144Z,32.53
2022-09-30T01:48:32.927Z,36.90
2022-09-30T01:51:13.985Z,32.07
2022-09-30T01:53:50.480Z,35.83
2022-09-30T01:56:53.329Z,33.23
2022-09-30T01:59:29.203Z,32.77
2022-09-30T02:02:02.448Z,28.23
2022-09-30T02:04:41.874Z,31.57
2022-09-30T02:07:41.519Z,26.50
2022-09-30T02:10:16.989Z,34.70
2022-09-30T02:12:56.148Z,32.43
2022-09-30T02:15:26.796Z,29.47
2022-09-30T02:18:06.574Z,27.67
2022-09-30T02:20:38.951Z,26.87
2022-09-30T02:23:13.049Z,30.03
2022-09-30T02:25:51.762Z,32.70
2022-09-30T02:28:27.049Z,33.10
2022-09-30T02:30:57.978Z,26.90
2022-09-30T02:33:35.196Z,30.17
2022-09-30T02:36:16.638Z,29.27
2022-09-30T02:38:49.178Z,33.50
2022-09-30T02:41:23.333Z,28.90
2022-09-30T02:43:52.445Z,30.80
2022-09-30T02:46:42.264Z,30.30
2022-09-30T02:49:24.536Z,31.87
2022-09-30T02:52:23.099Z,31.90
2022-09-30T02:55:27.003Z,31.93
2022-09-30T02:58:14.091Z,34.67
2022-09-30T03:00:42.273Z,30.20
2022-09-30T03:03:18.500Z,30.37
2022-09-30T03:05:45.459Z,28.53
2022-09-30T03:08:13.551Z,36.80
2022-09-30T03:10:40.756Z,31.23
2022-09-30T03:13:26.232Z,29.67
2022-09-30T03:16:05.109Z,31.67
2022-09-30T03:19:04.037Z,31.33
2022-09-30T03:21:59.888Z,32.80
2022-09-30T03:24:41.646Z,31.23
2022-09-30T03:27:36.270Z,33.10
2022-09-30T03:30:09.040Z,34.53
2022-09-30T03:33:10.400Z,28.43
2022-09-30T03:36:15.294Z,28.90
2022-09-30T03:38:57.855Z,29.40
2022-09-30T03:41:46.333Z,29.40
2022-09-30T03:44:41.207Z,29.20
2022-09-30T03:47:14.674Z,27.83
2022-09-30T03:52:39.735Z,30.83
2022-09-30T03:55:11.782Z,25.67
2022-09-30T03:57:39.304Z,27.50
2022-09-30T04:00:07.595Z,29.37
2022-09-30T04:02:36.761Z,24.47
2022-09-30T04:05:05.574Z,28.40
2022-09-30T04:07:33.122Z,29.50
2022-09-30T04:10:00.490Z,28.23
2022-09-30T04:12:28.472Z,28.63
2022-09-30T04:14:55.247Z,31.67
2022-09-30T04:17:22.484Z,34.97
2022-09-30T04:19:49.871Z,33.27
2022-09-30T04:22:16.802Z,32.43
2022-09-30T04:24:43.974Z,32.80
2022-09-30T04:27:11.124Z,32.30
2022-09-30T04:29:38.184Z,40.03
2022-09-30T04:32:05.050Z,41.60
2022-09-30T04:34:31.894Z,38.63
2022-09-30T04:36:58.658Z,40.60
2022-09-30T04:39:25.430Z,35.97
2022-09-30T04:41:54.027Z,36.17
2022-09-30T04:44:21.584Z,33.07
2022-09-30T04:46:48.764Z,34.27
2022-09-30T04:49:15.588Z,34.23
2022-09-30T04:51:46.095Z,30.23
2022-09-30T04:54:13.462Z,31.37
2022-09-30T04:56:40.248Z,34.30
2022-09-30T04:59:07.160Z,36.07
2022-09-30T05:01:34.391Z,34.17
2022-09-30T05:04:01.955Z,34.50
2022-09-30T05:06:29.061Z,37.07
2022-09-30T05:08:55.925Z,33.47
2022-09-30T05:11:23.042Z,33.23
2022-09-30T05:13:51.183Z,37.97
2022-09-30T05:16:18.944Z,31.63
2022-09-30T05:18:46.448Z,31.40
2022-09-30T05:21:20.579Z,34.07
2022-09-30T05:23:47.632Z,36.03
2022-09-30T05:26:15.116Z,30.10
2022-09-30T05:28:42.657Z,32.23
2022-09-30T05:31:10.040Z,37.13
2022-09-30T05:33:37.040Z,36.63
2022-09-30T05:36:06.409Z,34.43
2022-09-30T05:38:33.893Z,30.87
2022-09-30T05:41:07.652Z,29.90
2022-09-30T05:43:34.931Z,36.50
2022-09-30T05:46:01.900Z,31.93
2022-09-30T05:48:28.856Z,30.30
2022-09-30T05:50:57.637Z,29.13
2022-09-30T05:53:25.062Z,37.53
2022-09-30T05:55:52.375Z,35.90
2022-09-30T05:58:19.679Z,43.80
2022-09-30T06:00:48.101Z,42.03
2022-09-30T06:03:15.966Z,45.07
2022-09-30T06:05:44.691Z,36.17
2022-09-30T06:08:13.758Z,36.60
2022-09-30T06:10:43.112Z,42.10
2022-09-30T06:13:10.425Z,42.80
2022-09-30T06:15:41.371Z,38.27
2022-09-30T06:18:09.943Z,36.87
2022-09-30T06:20:37.545Z,37.60
2022-09-30T06:23:05.007Z,35.93
2022-09-30T06:25:32.300Z,33.17
2022-09-30T06:27:59.363Z,35.27
2022-09-30T06:30:27.383Z,35.17
2022-09-30T06:32:58.726Z,34.50
2022-09-30T06:35:26.467Z,29.00
2022-09-30T06:37:53.679Z,31.07
2022-09-30T06:40:21.297Z,24.27
2022-09-30T06:42:49.399Z,34.80
2022-09-30T06:45:29.509Z,26.73
2022-09-30T06:48:04.650Z,25.13
2022-09-30T06:50:32.728Z,27.73
2022-09-30T06:53:01.721Z,24.43
2022-09-30T06:55:30.376Z,21.87
2022-09-30T06:57:57.785Z,20.90
2022-09-30T07:00:26.257Z,26.77
2022-09-30T07:02:55.329Z,18.07
2022-09-30T07:05:22.469Z,26.30
2022-09-30T07:07:49.347Z,20.93
2022-09-30T07:10:16.445Z,17.90
2022-09-30T07:12:43.345Z,19.87
2022-09-30T07:15:13.697Z,20.40
2022-09-30T07:17:40.939Z,16.87
2022-09-30T07:20:08.374Z,22.07
2022-09-30T07:22:35.892Z,16.07
2022-09-30T07:25:04.613Z,20.20
2022-09-30T07:27:33.937Z,19.53
2022-09-30T07:30:11.489Z,18.03
2022-09-30T07:32:41.573Z,14.93
2022-09-30T07:35:08.661Z,14.23
2022-09-30T07:37:36.423Z,13.77
2022-09-30T07:40:06.995Z,17.87
2022-09-30T07:42:37.697Z,13.27
2022-09-30T07:45:06.263Z,15.70
2022-09-30T07:47:33.287Z,16.80
2022-09-30T07:50:00.543Z,17.17
2022-09-30T07:52:27.618Z,13.37
2022-09-30T07:54:55.806Z,16.00
2022-09-30T07:57:22.963Z,15.07
2022-09-30T07:59:49.964Z,24.50
2022-09-30T08:02:18.789Z,11.83
2022-09-30T08:04:45.961Z,11.93
2022-09-30T08:07:14.969Z,11.90
2022-09-30T08:09:42.302Z,12.47
2022-09-30T08:12:09.796Z,15.90
2022-09-30T08:14:36.637Z,13.57
2022-09-30T08:17:03.419Z,15.98
2022-09-30T08:19:31.573Z,12.20
2022-09-30T08:21:59.043Z,11.70
2022-09-30T08:24:27.146Z,14.13
2022-09-30T08:26:55.517Z,11.53
2022-09-30T08:32:09.856Z,11.85
2022-09-30T08:34:36.858Z,12.13
2022-09-30T08:37:08.636Z,10.65
2022-09-30T08:39:36.737Z,19.10
2022-09-30T08:42:36.010Z,11.47
2022-09-30T08:45:33.541Z,12.27
2022-09-30T08:48:23.382Z,15.18
2022-09-30T08:51:06.124Z,14.40
2022-09-30T08:53:41.125Z,13.13
2022-09-30T08:56:08.881Z,16.40
2022-09-30T08:58:43.864Z,13.23
2022-09-30T09:01:31.005Z,11.82
2022-09-30T09:04:00.460Z,15.95
2022-09-30T09:07:00.633Z,15.85
2022-09-30T09:09:34.594Z,21.15
2022-09-30T09:12:22.642Z,13.73
2022-09-30T09:15:04.943Z,13.23
2022-09-30T09:18:10.942Z,16.63
2022-09-30T09:20:42.984Z,14.35
2022-09-30T09:23:13.928Z,11.73
2022-09-30T09:25:41.037Z,13.63
2022-09-30T09:28:27.945Z,16.95
2022-09-30T09:30:58.878Z,12.10
2022-09-30T09:33:39.703Z,11.20
2022-09-30T09:36:23.049Z,16.98
2022-09-30T09:38:56.103Z,15.25
2022-09-30T09:41:39.212Z,20.80
2022-09-30T09:44:50.322Z,17.48
2022-09-30T09:47:17.462Z,14.68
2022-09-30T09:49:57.944Z,17.33
2022-09-30T09:52:27.713Z,14.52
2022-09-30T09:54:56.831Z,12.23
2022-09-30T09:57:32.394Z,13.77
2022-09-30T10:00:29.694Z,12.07
2022-09-30T10:03:00.655Z,12.48
2022-09-30T10:05:29.939Z,11.70
2022-09-30T10:08:23.250Z,10.68
2022-09-30T10:10:56.077Z,12.30
2022-09-30T10:13:26.296Z,11.88
2022-09-30T10:15:56.315Z,10.60
2022-09-30T10:18:30.083Z,7.93
2022-09-30T10:21:00.731Z,11.00
2022-09-30T10:23:27.836Z,12.48
2022-09-30T10:25:55.763Z,11.48
2022-09-30T10:28:26.875Z,13.38
2022-09-30T10:31:22.085Z,9.00
2022-09-30T10:34:10.089Z,9.70
2022-09-30T10:36:40.711Z,10.43
2022-09-30T10:39:31.652Z,9.57
2022-09-30T10:42:08.649Z,8.25
2022-09-30T10:44:44.359Z,9.45
2022-09-30T10:47:16.425Z,18.50
2022-09-30T10:49:47.202Z,16.98
2022-09-30T10:52:22.394Z,12.23
2022-09-30T10:54:57.301Z,10.63
2022-09-30T10:57:35.221Z,10.05
2022-09-30T11:00:14.543Z,25.40
2022-09-30T11:03:07.967Z,15.52
2022-09-30T11:05:39.448Z,16.45
2022-09-30T11:08:21.873Z,13.13
2022-09-30T11:11:05.823Z,13.63
2022-09-30T11:14:11.252Z,9.60
2022-09-30T11:16:47.178Z,12.63
2022-09-30T11:19:41.289Z,13.30
2022-09-30T11:22:33.802Z,18.85
2022-09-30T11:25:01.077Z,11.23
2022-09-30T11:27:30.582Z,9.93
2022-09-30T11:30:03.584Z,17.05
2022-09-30T11:32:39.422Z,14.77
2022-09-30T11:35:25.432Z,11.30
2022-09-30T11:38:07.199Z,13.00
2022-09-30T11:41:01.866Z,11.35
2022-09-30T11:43:47.459Z,13.23
2022-09-30T11:46:32.771Z,16.27
2022-09-30T11:49:05.666Z,12.57
2022-09-30T11:51:40.075Z,13.18
2022-09-30T11:54:59.619Z,10.90
2022-09-30T11:57:43.299Z,12.05
2022-09-30T12:00:12.597Z,11.70
2022-09-30T12:02:50.712Z,11.50
2022-09-30T12:05:41.814Z,11.48
2022-09-30T12:08:24.321Z,16.75
2022-09-30T12:11:10.086Z,13.35
2022-09-30T12:13:44.508Z,12.18
2022-09-30T12:16:17.510Z,11.40
2022-09-30T12:18:49.904Z,15.13
2022-09-30T12:21:19.899Z,13.65
2022-09-30T12:23:55.251Z,23.63
2022-09-30T12:26:22.164Z,13.88
2022-09-30T12:29:29.970Z,10.70
2022-09-30T12:32:15.995Z,10.23
2022-09-30T12:35:08.046Z,9.25
2022-09-30T12:37:48.711Z,7.82
2022-09-30T12:40:29.263Z,8.88
2022-09-30T12:43:48.419Z,9.73
2022-09-30T12:46:15.133Z,12.00
2022-09-30T12:48:51.205Z,10.30
2022-09-30T12:51:38.861Z,9.93
2022-09-30T12:54:18.597Z,10.23
2022-09-30T12:56:48.249Z,12.23
2022-09-30T12:59:17.855Z,10.23
2022-09-30T13:01:44.865Z,13.32
2022-09-30T13:04:43.096Z,10.95
2022-09-30T13:07:18.289Z,11.55
2022-09-30T13:10:17.293Z,11.75
2022-09-30T13:12:46.788Z,10.80
2022-09-30T13:15:31.424Z,11.27
2022-09-30T13:18:21.117Z,13.30
2022-09-30T13:20:56.723Z,11.90
2022-09-30T13:23:35.822Z,13.73
2022-09-30T13:26:03.130Z,14.05
2022-09-30T13:28:38.291Z,12.05
2022-09-30T13:31:22.957Z,13.10
2022-09-30T13:34:02.136Z,11.02
2022-09-30T13:36:49.244Z,9.95
2022-09-30T13:39:34.277Z,9.48
2022-09-30T13:42:01.074Z,8.20
2022-09-30T13:44:38.150Z,12.60
2022-09-30T13:47:25.956Z,9.70
2022-09-30T13:50:10.950Z,6.60
2022-09-30T13:52:39.936Z,11.57
2022-09-30T13:55:18.411Z,8.65
2022-09-30T13:58:24.630Z,11.40
2022-09-30T14:01:14.138Z,8.48
2022-09-30T14:03:59.179Z,9.85
2022-09-30T14:06:29.879Z,8.55
2022-09-30T14:09:12.543Z,8.55
2022-09-30T14:11:54.370Z,8.52
2022-09-30T14:14:46.088Z,10.85
2022-09-30T14:17:39.783Z,8.30
2022-09-30T14:20:06.484Z,7.30
2022-09-30T14:22:36.554Z,9.05
2022-09-30T14:25:05.146Z,9.57
2022-09-30T14:27:45.626Z,9.73
2022-09-30T14:30:20.696Z,7.35
2022-09-30T14:32:58.504Z,8.23
2022-09-30T14:36:22.130Z,9.23
2022-09-30T14:38:58.840Z,5.88
2022-09-30T14:41:26.845Z,7.43
2022-09-30T14:43:58.234Z,6.35
2022-09-30T14:46:42.177Z,7.25
2022-09-30T14:49:14.417Z,8.10
2022-09-30T14:51:49.069Z,8.98
2022-09-30T14:54:29.113Z,8.77
2022-09-30T14:56:57.387Z,11.63
2022-09-30T14:59:31.282Z,7.70
2022-09-30T15:02:04.312Z,7.55
2022-09-30T15:04:34.885Z,8.60
2022-09-30T15:07:04.427Z,7.85
2022-09-30T15:09:38.501Z,9.52
2022-09-30T15:12:13.767Z,8.45
2022-09-30T15:14:59.844Z,7.88
2022-09-30T15:17:38.192Z,6.10
2022-09-30T15:20:23.797Z,11.63
2022-09-30T15:22:55.141Z,7.77
2022-09-30T15:25:22.735Z,10.15
2022-09-30T15:27:50.216Z,8.97
2022-09-30T15:30:29.266Z,7.45
2022-09-30T15:33:02.274Z,9.53
2022-09-30T15:35:30.443Z,11.15
2022-09-30T15:38:20.714Z,10.90
2022-09-30T15:40:57.228Z,10.25
2022-09-30T15:43:42.423Z,12.10
2022-09-30T15:46:33.858Z,16.63
2022-09-30T15:49:02.029Z,15.03
2022-09-30T15:51:41.485Z,12.77
2022-09-30T15:54:29.232Z,11.00
2022-09-30T15:56:56.542Z,19.23
2022-09-30T15:59:23.497Z,23.90
2022-09-30T16:01:52.536Z,19.33
2022-09-30T16:04:19.287Z,15.13
2022-09-30T16:07:07.889Z,11.90
2022-09-30T16:09:39.454Z,12.43
2022-09-30T16:12:10.300Z,12.17
2022-09-30T16:15:15.517Z,13.67
2022-09-30T16:17:49.948Z,13.77
2022-09-30T16:20:19.919Z,14.37
2022-09-30T16:22:46.881Z,17.13
2022-09-30T16:25:28.476Z,16.07
2022-09-30T16:28:12.577Z,25.93
2022-09-30T16:30:48.972Z,27.70
2022-09-30T16:33:16.635Z,40.90
2022-09-30T16:35:44.301Z,35.83
2022-09-30T16:38:16.842Z,33.00
2022-09-30T16:40:44.158Z,25.80
2022-09-30T16:43:11.771Z,20.37
2022-09-30T16:45:43.720Z,27.10
2022-09-30T16:48:18.223Z,32.70
2022-09-30T16:51:04.566Z,39.27
2022-09-30T16:53:31.530Z,25.03
2022-09-30T16:55:58.741Z,28.83
2022-09-30T16:58:25.841Z,24.93
2022-09-30T17:00:53.197Z,19.40
2022-09-30T17:03:21.663Z,20.83
2022-09-30T17:05:53.351Z,25.90
2022-09-30T17:08:24.083Z,28.37
2022-09-30T17:10:51.143Z,29.37
2022-09-30T17:13:18.741Z,27.97
2022-09-30T17:15:50.618Z,36.53
2022-09-30T17:18:17.842Z,51.10
2022-09-30T17:20:52.461Z,38.73
2022-09-30T17:23:24.286Z,32.03
2022-09-30T17:25:51.816Z,21.03
2022-09-30T17:28:18.737Z,18.73
2022-09-30T17:30:48.230Z,19.63
2022-09-30T17:33:15.847Z,21.40
2022-09-30T17:35:42.695Z,20.67
2022-09-30T17:38:11.699Z,21.00
2022-09-30T17:40:57.314Z,19.30
2022-09-30T17:43:24.712Z,22.37
2022-09-30T17:45:52.385Z,22.47
2022-09-30T17:48:19.562Z,22.30
2022-09-30T17:50:48.516Z,26.93
2022-09-30T17:53:18.134Z,22.30
2022-09-30T17:55:49.906Z,29.33
2022-09-30T17:58:17.281Z,29.43
2022-09-30T18:00:45.263Z,45.47
2022-09-30T18:03:12.295Z,37.13
2022-09-30T18:05:39.214Z,36.97
2022-09-30T18:08:06.291Z,36.33
2022-09-30T18:10:36.409Z,34.83
2022-09-30T18:13:03.338Z,32.37
2022-09-30T18:15:30.277Z,34.47
2022-09-30T18:17:57.143Z,38.23
2022-09-30T18:20:25.613Z,42.77
2022-09-30T18:22:52.831Z,38.00
2022-09-30T18:25:20.003Z,46.23
2022-09-30T18:27:53.385Z,46.03
2022-09-30T18:30:21.840Z,36.00
2022-09-30T18:32:51.097Z,35.50
2022-09-30T18:35:20.502Z,50.47
2022-09-30T18:37:51.381Z,51.23
2022-09-30T18:40:20.887Z,41.73
2022-09-30T18:42:48.718Z,37.30
2022-09-30T18:45:15.733Z,42.90
2022-09-30T18:47:44.079Z,41.73
2022-09-30T18:50:12.919Z,42.53
2022-09-30T18:52:40.710Z,42.03
2022-09-30T18:55:09.794Z,41.40
2022-09-30T18:57:36.791Z,46.07
2022-09-30T19:00:04.840Z,50.17
2022-09-30T19:02:32.387Z,50.60
2022-09-30T19:04:59.998Z,43.63
2022-09-30T19:07:27.101Z,44.03
2022-09-30T19:09:53.958Z,43.07
2022-09-30T19:12:23.103Z,46.00
2022-09-30T19:14:49.906Z,47.03
2022-09-30T19:17:16.834Z,43.80
2022-09-30T19:19:45.951Z,50.03
2022-09-30T19:22:13.679Z,45.27
2022-09-30T19:24:42.681Z,42.13
2022-09-30T19:27:11.306Z,47.30
2022-09-30T19:29:39.286Z,42.73
2022-09-30T19:32:09.721Z,42.23
2022-09-30T19:34:37.150Z,44.67
2022-09-30T19:37:04.164Z,75.37
2022-09-30T19:39:42.739Z,62.07
2022-09-30T19:42:18.557Z,69.73
2022-09-30T19:44:45.678Z,71.60
2022-09-30T19:47:12.896Z,60.87
2022-09-30T19:49:40.036Z,53.93
2022-09-30T19:52:16.734Z,45.70
2022-09-30T19:54:45.852Z,47.07
2022-09-30T19:57:13.254Z,39.57
2022-09-30T19:59:40.182Z,40.07
2022-09-30T20:02:11.287Z,41.93
2022-09-30T20:04:39.655Z,40.10
2022-09-30T20:07:06.591Z,40.53
2022-09-30T20:09:33.402Z,42.70
2022-09-30T20:12:00.707Z,41.90
2022-09-30T20:14:47.232Z,37.13
2022-09-30T20:17:14.195Z,50.60
2022-09-30T20:19:41.024Z,58.77
2022-09-30T20:22:10.083Z,48.37
2022-09-30T20:24:37.960Z,58.90
2022-09-30T20:27:05.936Z,58.30
2022-09-30T20:29:33.174Z,53.63
2022-09-30T20:32:02.306Z,55.20
2022-09-30T20:34:29.258Z,73.83
2022-09-30T20:36:56.398Z,67.97
2022-09-30T20:39:23.821Z,64.97
2022-09-30T20:41:51.188Z,74.00
2022-09-30T20:44:19.125Z,65.97
2022-09-30T20:46:46.242Z,73.80
2022-09-30T20:49:13.252Z,61.07
2022-09-30T20:51:40.256Z,58.50
2022-09-30T20:54:07.360Z,63.80
2022-09-30T20:57:02.436Z,58.23
2022-09-30T20:59:21.232Z,55.07
2022-09-30T21:01:49.367Z,59.63
2022-09-30T21:04:16.467Z,63.03
2022-09-30T21:06:43.528Z,61.90
2022-09-30T21:09:13.272Z,56.67
2022-09-30T21:11:42.385Z,57.97
2022-09-30T21:14:09.523Z,63.13
2022-09-30T21:16:36.646Z,61.70
2022-09-30T21:19:03.986Z,53.97
2022-09-30T21:21:31.350Z,55.53
2022-09-30T21:23:59.901Z,61.23
2022-09-30T21:26:28.019Z,56.63
2022-09-30T21:28:55.105Z,60.27
2022-09-30T21:31:27.489Z,52.20
2022-09-30T21:33:56.756Z,53.47
2022-09-30T21:36:24.819Z,50.63
2022-09-30T21:38:52.518Z,52.47
2022-09-30T21:41:20.048Z,64.67
2022-09-30T21:43:47.212Z,78.03
2022-09-30T21:46:15.830Z,66.40
2022-09-30T21:48:43.229Z,81.53
2022-09-30T21:51:13.496Z,83.57
2022-09-30T21:53:41.123Z,91.07
2022-09-30T21:56:11.579Z,84.90
2022-09-30T21:58:39.779Z,86.97
2022-09-30T22:01:07.677Z,82.60
2022-09-30T22:03:38.443Z,79.63
2022-09-30T22:06:10.201Z,89.43
2022-09-30T22:08:41.575Z,96.77
2022-09-30T22:11:11.247Z,68.07
2022-09-30T22:13:41.130Z,69.77
2022-09-30T22:16:08.500Z,61.30
2022-09-30T22:18:35.825Z,63.73
2022-09-30T22:21:06.241Z,57.60
2022-09-30T22:23:33.194Z,56.50
2022-09-30T22:26:27.108Z,59.50
2022-09-30T22:29:00.590Z,54.83
2022-09-30T22:31:31.406Z,50.40
2022-09-30T22:34:20.033Z,52.60
2022-09-30T22:37:05.999Z,50.33
2022-09-30T22:39:33.538Z,46.30
2022-09-30T22:42:01.227Z,45.97
2022-09-30T22:44:32.009Z,42.77
2022-09-30T22:47:02.035Z,44.37
2022-09-30T22:49:33.120Z,41.10
2022-09-30T22:52:01.870Z,42.97
2022-09-30T22:54:29.266Z,47.23
2022-09-30T22:56:58.425Z,44.80
2022-09-30T22:59:26.841Z,48.37
2022-09-30T23:01:54.609Z,46.63
2022-09-30T23:04:22.428Z,48.43
2022-09-30T23:06:51.115Z,44.17
2022-09-30T23:09:18.946Z,48.67
2022-09-30T23:11:46.171Z,49.97
2022-09-30T23:14:13.691Z,45.80
2022-09-30T23:16:41.213Z,46.97
2022-09-30T23:19:08.398Z,46.93
2022-09-30T23:21:35.828Z,48.77
2022-09-30T23:24:03.690Z,48.57
2022-09-30T23:26:31.255Z,46.27
2022-09-30T23:29:04.304Z,46.70
2022-09-30T23:31:32.136Z,50.40
2022-09-30T23:34:01.420Z,50.20
2022-09-30T23:36:33.378Z,46.73
2022-09-30T23:39:04.451Z,41.67
2022-09-30T23:41:32.585Z,49.70
2022-09-30T23:44:00.029Z,49.40
2022-09-30T23:46:27.307Z,60.93
2022-09-30T23:48:54.127Z,55.27
2022-09-30T23:51:20.986Z,57.57
2022-09-30T23:53:47.865Z,55.87
2022-09-30T23:56:18.945Z,54.17
2022-09-30T23:58:46.768Z,49.57
